Yuma, Arizona
Current Conditions -  °F | °C
As of 9:57 AM on Thursday 30 Oct 2014 (Local Time) from KNYL Reporting Station
Broken Clouds Broken Clouds  
Wind Chill: 81°   Ceiling: 25000
Heat Index: 81°   Visibility: 10mi
Dew Point: 34°   Wind: 9mph
Humidity: 18%   Direction: 20°NNE
Pressure: 29.97"   Gusts: NA
Location:  32.68°N, 114.62°W
Report Text: KNYL 301657Z 02008KT 10SM FEW100 BKN250 BKN300 27/01 A2997 RMK AO2 SLP146 T02720011
Loading
Personal Weather Stations






























Interactive Weather Map New forecast layout! Learn more

10-Day Weather Forecast

Advertisements
Track Severe Weather on mobile